PWSweather.com
Personal Weather Stations
Station Observations
INORDPAS37
Bondues, BonduesFR 59910

BonduesBonduesFR 59910

Lat: 50.7, Lon: 3.09

Elevation: 102

Station Type: Netatmo

http://bondues.meteoamikuze.com

High Low Average
Temperature 50.7°F10.4°C 32.0°F0.0°C 39.5°F4.2°C
Dew Point 35.4°F1.9°C 19.6°F-6.9°C 26.1°F-3.3°C
Winds 1.8 mph 2.9 kmh Calm Calm 1.0 mph S1.6 kmh S
Wind Gusts 4.3 mph6.9 kmh 0.7 mph1.1 kmh 2.0 mph3.2 kmh
Humidity 67% 58% 64%
Pressure 30.28 in1025.4 mb 30.16 in1021.3 mb -
Precipitation 0.00 in0.0 mm - -
Hour Temp Dew Point Humidity Winds Wind Gusts Pressure Precip Precip Rate Daily Precip Total
12:05 AM 37.9°F3.3°C 25.2°F-3.8°C 65% 1.3 mph SSE2.1 kmh SSE 3.1 mph5.0 kmh 30.26 in1024.7 mb 0.00 in0.0 mm 0.00 in0.0 mm 0.00 in0.0 mm
12:25 AM 37.9°F3.3°C 25.2°F-3.8°C 65% 0.7 mph E1.1 kmh E 1.3 mph2.1 kmh 30.25 in1024.4 mb 0.00 in0.0 mm 0.00 in0.0 mm 0.00 in0.0 mm
12:45 AM 37.6°F3.1°C 24.8°F-4.0°C 65% 0.7 mph SE1.1 kmh SE 2.5 mph4.0 kmh 30.24 in1024.0 mb 0.00 in0.0 mm 0.00 in0.0 mm 0.00 in0.0 mm
01:05 AM 37.4°F3.0°C 24.6°F-4.1°C 65% 0.7 mph SE1.1 kmh SE 1.8 mph2.9 kmh 30.24 in1024.0 mb 0.00 in0.0 mm 0.00 in0.0 mm 0.00 in0.0 mm
01:35 AM 37.2°F2.9°C 24.4°F-4.2°C 65% Calm Calm 1.3 mph2.1 kmh 30.24 in1024.0 mb 0.00 in0.0 mm 0.00 in0.0 mm 0.00 in0.0 mm
01:55 AM 36.7°F2.6°C 23.9°F-4.5°C 65% 0.7 mph SE1.1 kmh SE 1.3 mph2.1 kmh 30.24 in1024.0 mb 0.00 in0.0 mm 0.00 in0.0 mm 0.00 in0.0 mm
02:01 AM 36.5°F2.5°C 23.7°F-4.6°C 65% 0.7 mph SE1.1 kmh SE 1.3 mph2.1 kmh 30.23 in1023.7 mb 0.00 in0.0 mm 0.00 in0.0 mm 0.00 in0.0 mm
02:21 AM 36.5°F2.5°C 23.7°F-4.6°C 65% 0.7 mph E1.1 kmh E 1.8 mph2.9 kmh 30.23 in1023.7 mb 0.00 in0.0 mm 0.00 in0.0 mm 0.00 in0.0 mm
02:41 AM 36.3°F2.4°C 23.7°F-4.6°C 65% 1.3 mph E2.1 kmh E 3.8 mph6.1 kmh 30.22 in1023.4 mb 0.00 in0.0 mm 0.00 in0.0 mm 0.00 in0.0 mm
03:01 AM 36.7°F2.6°C 23.9°F-4.5°C 65% 0.7 mph N1.1 kmh N 1.8 mph2.9 kmh 30.22 in1023.4 mb 0.00 in0.0 mm 0.00 in0.0 mm 0.00 in0.0 mm
03:21 AM 36.9°F2.7°C 24.1°F-4.4°C 65% 1.3 mph ESE2.1 kmh ESE 2.5 mph4.0 kmh 30.21 in1023.0 mb 0.00 in0.0 mm 0.00 in0.0 mm 0.00 in0.0 mm
03:41 AM 37.0°F2.8°C 24.3°F-4.3°C 65% 0.7 mph E1.1 kmh E 1.8 mph2.9 kmh 30.21 in1023.0 mb 0.00 in0.0 mm 0.00 in0.0 mm 0.00 in0.0 mm
04:01 AM 36.9°F2.7°C 24.1°F-4.4°C 65% 1.3 mph E2.1 kmh E 3.1 mph5.0 kmh 30.20 in1022.7 mb 0.00 in0.0 mm 0.00 in0.0 mm 0.00 in0.0 mm
04:22 AM 36.7°F2.6°C 23.9°F-4.5°C 65% 1.3 mph SE2.1 kmh SE 3.8 mph6.1 kmh 30.19 in1022.4 mb 0.00 in0.0 mm 0.00 in0.0 mm 0.00 in0.0 mm
04:42 AM 36.7°F2.6°C 23.9°F-4.5°C 65% 0.7 mph E1.1 kmh E 1.8 mph2.9 kmh 30.19 in1022.4 mb 0.00 in0.0 mm 0.00 in0.0 mm 0.00 in0.0 mm
05:02 AM 36.7°F2.6°C 23.9°F-4.5°C 65% 1.3 mph ESE2.1 kmh ESE 4.3 mph6.9 kmh 30.18 in1022.0 mb 0.00 in0.0 mm 0.00 in0.0 mm 0.00 in0.0 mm
05:22 AM 36.5°F2.5°C 23.7°F-4.6°C 65% 1.3 mph E2.1 kmh E 3.8 mph6.1 kmh 30.19 in1022.4 mb 0.00 in0.0 mm 0.00 in0.0 mm 0.00 in0.0 mm
05:42 AM 36.5°F2.5°C 23.7°F-4.6°C 65% 1.3 mph E2.1 kmh E 3.8 mph6.1 kmh 30.18 in1022.0 mb 0.00 in0.0 mm 0.00 in0.0 mm 0.00 in0.0 mm
06:02 AM 36.3°F2.4°C 23.7°F-4.6°C 65% 0.7 mph NE1.1 kmh NE 2.5 mph4.0 kmh 30.17 in1021.7 mb 0.00 in0.0 mm 0.00 in0.0 mm 0.00 in0.0 mm
06:22 AM 36.1°F2.3°C 23.5°F-4.7°C 65% 1.3 mph E2.1 kmh E 3.8 mph6.1 kmh 30.16 in1021.3 mb 0.00 in0.0 mm 0.00 in0.0 mm 0.00 in0.0 mm
06:43 AM 36.0°F2.2°C 23.4°F-4.8°C 65% 0.7 mph NW1.1 kmh NW 1.8 mph2.9 kmh 30.16 in1021.3 mb 0.00 in0.0 mm 0.00 in0.0 mm 0.00 in0.0 mm
07:02 AM 35.8°F2.1°C 23.2°F-4.9°C 65% 0.7 mph N1.1 kmh N 2.5 mph4.0 kmh 30.16 in1021.3 mb 0.00 in0.0 mm 0.00 in0.0 mm 0.00 in0.0 mm
07:23 AM 35.4°F1.9°C 22.8°F-5.1°C 65% 0.7 mph NW1.1 kmh NW 3.8 mph6.1 kmh 30.16 in1021.3 mb 0.00 in0.0 mm 0.00 in0.0 mm 0.00 in0.0 mm
07:43 AM 35.2°F1.8°C 22.6°F-5.2°C 65% 0.7 mph NW1.1 kmh NW 2.5 mph4.0 kmh 30.16 in1021.3 mb 0.00 in0.0 mm 0.00 in0.0 mm 0.00 in0.0 mm
08:03 AM 35.1°F1.7°C 22.8°F-5.1°C 66% 1.3 mph N2.1 kmh N 2.5 mph4.0 kmh 30.17 in1021.7 mb 0.00 in0.0 mm 0.00 in0.0 mm 0.00 in0.0 mm
08:24 AM 34.9°F1.6°C 22.6°F-5.2°C 66% 1.3 mph N2.1 kmh N 3.1 mph5.0 kmh 30.17 in1021.7 mb 0.00 in0.0 mm 0.00 in0.0 mm 0.00 in0.0 mm
08:43 AM 34.9°F1.6°C 22.6°F-5.2°C 66% 1.3 mph NE2.1 kmh NE 2.5 mph4.0 kmh 30.17 in1021.7 mb 0.00 in0.0 mm 0.00 in0.0 mm 0.00 in0.0 mm
09:04 AM 34.9°F1.6°C 22.6°F-5.2°C 66% 0.7 mph N1.1 kmh N 1.8 mph2.9 kmh 30.17 in1021.7 mb 0.00 in0.0 mm 0.00 in0.0 mm 0.00 in0.0 mm
09:23 AM 34.9°F1.6°C 22.6°F-5.2°C 66% 0.7 mph N1.1 kmh N 2.5 mph4.0 kmh 30.17 in1021.7 mb 0.00 in0.0 mm 0.00 in0.0 mm 0.00 in0.0 mm
09:44 AM 35.2°F1.8°C 23.0°F-5.0°C 66% 0.7 mph NE1.1 kmh NE 3.1 mph5.0 kmh 30.18 in1022.0 mb 0.00 in0.0 mm 0.00 in0.0 mm 0.00 in0.0 mm
10:04 AM 35.8°F2.1°C 23.9°F-4.5°C 67% 1.3 mph NE2.1 kmh NE 3.1 mph5.0 kmh 30.18 in1022.0 mb 0.00 in0.0 mm 0.00 in0.0 mm 0.00 in0.0 mm
10:24 AM 37.4°F3.0°C 25.3°F-3.7°C 67% 0.7 mph NW1.1 kmh NW 1.8 mph2.9 kmh 30.19 in1022.4 mb 0.00 in0.0 mm 0.00 in0.0 mm 0.00 in0.0 mm
10:45 AM 39.4°F4.1°C 27.3°F-2.6°C 67% 1.3 mph SE2.1 kmh SE 3.8 mph6.1 kmh 30.18 in1022.0 mb 0.00 in0.0 mm 0.00 in0.0 mm 0.00 in0.0 mm
11:04 AM 40.5°F4.7°C 27.9°F-2.3°C 66% 1.3 mph ENE2.1 kmh ENE 3.1 mph5.0 kmh 30.19 in1022.4 mb 0.00 in0.0 mm 0.00 in0.0 mm 0.00 in0.0 mm
11:25 AM 41.4°F5.2°C 28.8°F-1.8°C 66% 0.7 mph NNE1.1 kmh NNE 1.8 mph2.9 kmh 30.19 in1022.4 mb 0.00 in0.0 mm 0.00 in0.0 mm 0.00 in0.0 mm
11:44 AM 41.9°F5.5°C 28.9°F-1.7°C 65% 1.8 mph E2.9 kmh E 3.8 mph6.1 kmh 30.20 in1022.7 mb 0.00 in0.0 mm 0.00 in0.0 mm 0.00 in0.0 mm
12:05 PM 42.8°F6.0°C 29.8°F-1.2°C 65% 1.3 mph SE2.1 kmh SE 3.8 mph6.1 kmh 30.19 in1022.4 mb 0.00 in0.0 mm 0.00 in0.0 mm 0.00 in0.0 mm
12:35 PM 43.7°F6.5°C 30.6°F-0.8°C 65% 1.3 mph SE2.1 kmh SE 3.1 mph5.0 kmh 30.20 in1022.7 mb 0.00 in0.0 mm 0.00 in0.0 mm 0.00 in0.0 mm
12:55 PM 45.0°F7.2°C 31.8°F-0.1°C 65% 0.7 mph SW1.1 kmh SW 2.5 mph4.0 kmh 30.20 in1022.7 mb 0.00 in0.0 mm 0.00 in0.0 mm 0.00 in0.0 mm
01:15 PM 46.2°F7.9°C 32.7°F0.4°C 64% 0.7 mph NW1.1 kmh NW 2.5 mph4.0 kmh 30.19 in1022.4 mb 0.00 in0.0 mm 0.00 in0.0 mm 0.00 in0.0 mm
01:21 PM 47.1°F8.4°C 33.4°F0.8°C 64% 1.3 mph 2.1 kmh 3.1 mph5.0 kmh 30.19 in1022.4 mb 0.00 in0.0 mm 0.00 in0.0 mm 0.00 in0.0 mm
01:41 PM 47.8°F8.8°C 33.8°F1.0°C 63% 1.8 mph N2.9 kmh N 3.8 mph6.1 kmh 30.20 in1022.7 mb 0.00 in0.0 mm 0.00 in0.0 mm 0.00 in0.0 mm
02:01 PM 48.4°F9.1°C 34.0°F1.1°C 62% 1.8 mph W2.9 kmh W 4.3 mph6.9 kmh 30.19 in1022.4 mb 0.00 in0.0 mm 0.00 in0.0 mm 0.00 in0.0 mm
02:21 PM 48.2°F9.0°C 33.8°F1.0°C 62% 1.3 mph NNW2.1 kmh NNW 3.8 mph6.1 kmh 30.19 in1022.4 mb 0.00 in0.0 mm 0.00 in0.0 mm 0.00 in0.0 mm
02:41 PM 47.7°F8.7°C 32.9°F0.5°C 61% 1.8 mph WNW2.9 kmh WNW 3.8 mph6.1 kmh 30.19 in1022.4 mb 0.00 in0.0 mm 0.00 in0.0 mm 0.00 in0.0 mm
03:02 PM 47.3°F8.5°C 32.5°F0.3°C 61% 1.3 mph WNW2.1 kmh WNW 3.8 mph6.1 kmh 30.19 in1022.4 mb 0.00 in0.0 mm 0.00 in0.0 mm 0.00 in0.0 mm
03:21 PM 47.3°F8.5°C 32.5°F0.3°C 61% 1.3 mph NW2.1 kmh NW 3.1 mph5.0 kmh 30.19 in1022.4 mb 0.00 in0.0 mm 0.00 in0.0 mm 0.00 in0.0 mm
03:42 PM 47.8°F8.8°C 32.7°F0.4°C 60% 1.3 mph NW2.1 kmh NW 3.1 mph5.0 kmh 30.20 in1022.7 mb 0.00 in0.0 mm 0.00 in0.0 mm 0.00 in0.0 mm
04:02 PM 49.5°F9.7°C 34.2°F1.2°C 60% 1.3 mph NW2.1 kmh NW 3.8 mph6.1 kmh 30.20 in1022.7 mb 0.00 in0.0 mm 0.00 in0.0 mm 0.00 in0.0 mm
04:22 PM 50.7°F10.4°C 35.4°F1.9°C 60% 1.8 mph NW2.9 kmh NW 3.8 mph6.1 kmh 30.20 in1022.7 mb 0.00 in0.0 mm 0.00 in0.0 mm 0.00 in0.0 mm
04:43 PM 49.5°F9.7°C 33.8°F1.0°C 59% 1.3 mph NW2.1 kmh NW 3.1 mph5.0 kmh 30.21 in1023.0 mb 0.00 in0.0 mm 0.00 in0.0 mm 0.00 in0.0 mm
05:02 PM 47.8°F8.8°C 32.4°F0.2°C 59% 1.3 mph WNW2.1 kmh WNW 2.5 mph4.0 kmh 30.22 in1023.4 mb 0.00 in0.0 mm 0.00 in0.0 mm 0.00 in0.0 mm
05:23 PM 46.8°F8.2°C 30.9°F-0.6°C 58% 1.8 mph W2.9 kmh W 3.1 mph5.0 kmh 30.22 in1023.4 mb 0.00 in0.0 mm 0.00 in0.0 mm 0.00 in0.0 mm
05:42 PM 45.9°F7.7°C 30.0°F-1.1°C 58% 0.7 mph W1.1 kmh W 1.8 mph2.9 kmh 30.22 in1023.4 mb 0.00 in0.0 mm 0.00 in0.0 mm 0.00 in0.0 mm
06:03 PM 45.0°F7.2°C 29.1°F-1.6°C 58% 1.3 mph W2.1 kmh W 2.5 mph4.0 kmh 30.22 in1023.4 mb 0.00 in0.0 mm 0.00 in0.0 mm 0.00 in0.0 mm
06:21 PM 44.1°F6.7°C 28.8°F-1.8°C 59% 0.7 mph W1.1 kmh W 1.3 mph2.1 kmh 30.24 in1024.0 mb 0.00 in0.0 mm 0.00 in0.0 mm 0.00 in0.0 mm
06:41 PM 42.8°F6.0°C 27.5°F-2.5°C 59% 0.7 mph W1.1 kmh W 1.3 mph2.1 kmh 30.24 in1024.0 mb 0.00 in0.0 mm 0.00 in0.0 mm 0.00 in0.0 mm
07:01 PM 41.4°F5.2°C 26.2°F-3.2°C 59% 0.7 mph W1.1 kmh W 1.3 mph2.1 kmh 30.24 in1024.0 mb 0.00 in0.0 mm 0.00 in0.0 mm 0.00 in0.0 mm
07:21 PM 40.1°F4.5°C 25.3°F-3.7°C 60% Calm Calm 1.3 mph2.1 kmh 30.25 in1024.4 mb 0.00 in0.0 mm 0.00 in0.0 mm 0.00 in0.0 mm
07:41 PM 38.8°F3.8°C 24.6°F-4.1°C 61% 0.7 mph SSW1.1 kmh SSW 1.3 mph2.1 kmh 30.25 in1024.4 mb 0.00 in0.0 mm 0.00 in0.0 mm 0.00 in0.0 mm
08:01 PM 38.1°F3.4°C 23.9°F-4.5°C 61% Calm Calm 1.3 mph2.1 kmh 30.26 in1024.7 mb 0.00 in0.0 mm 0.00 in0.0 mm 0.00 in0.0 mm
08:35 PM 37.2°F2.9°C 23.4°F-4.8°C 62% 0.7 mph W1.1 kmh W 1.3 mph2.1 kmh 30.26 in1024.7 mb 0.00 in0.0 mm 0.00 in0.0 mm 0.00 in0.0 mm
08:55 PM 36.7°F2.6°C 22.8°F-5.1°C 62% 0.7 mph W1.1 kmh W 1.3 mph2.1 kmh 30.26 in1024.7 mb 0.00 in0.0 mm 0.00 in0.0 mm 0.00 in0.0 mm
09:15 PM 36.0°F2.2°C 22.6°F-5.2°C 63% 0.7 mph W1.1 kmh W 1.3 mph2.1 kmh 30.26 in1024.7 mb 0.00 in0.0 mm 0.00 in0.0 mm 0.00 in0.0 mm
09:35 PM 35.2°F1.8°C 21.9°F-5.6°C 63% 0.7 mph SW1.1 kmh SW 1.3 mph2.1 kmh 30.27 in1025.1 mb 0.00 in0.0 mm 0.00 in0.0 mm 0.00 in0.0 mm
09:55 PM 34.5°F1.4°C 21.6°F-5.8°C 64% Calm Calm 0.7 mph1.1 kmh 30.27 in1025.1 mb 0.00 in0.0 mm 0.00 in0.0 mm 0.00 in0.0 mm
10:01 PM 34.0°F1.1°C 21.0°F-6.1°C 64% 0.7 mph SW1.1 kmh SW 1.3 mph2.1 kmh 30.27 in1025.1 mb 0.00 in0.0 mm 0.00 in0.0 mm 0.00 in0.0 mm
10:21 PM 33.6°F0.9°C 21.0°F-6.1°C 65% 0.7 mph SW1.1 kmh SW 1.3 mph2.1 kmh 30.27 in1025.1 mb 0.00 in0.0 mm 0.00 in0.0 mm 0.00 in0.0 mm
10:41 PM 33.1°F0.6°C 20.5°F-6.4°C 65% 0.7 mph W1.1 kmh W 1.8 mph2.9 kmh 30.27 in1025.1 mb 0.00 in0.0 mm 0.00 in0.0 mm 0.00 in0.0 mm
11:01 PM 32.7°F0.4°C 20.3°F-6.5°C 65% 0.7 mph SW1.1 kmh SW 1.3 mph2.1 kmh 30.28 in1025.4 mb 0.00 in0.0 mm 0.00 in0.0 mm 0.00 in0.0 mm
11:22 PM 32.4°F0.2°C 19.9°F-6.7°C 65% 0.7 mph W1.1 kmh W 1.3 mph2.1 kmh 30.28 in1025.4 mb 0.00 in0.0 mm 0.00 in0.0 mm 0.00 in0.0 mm
11:42 PM 32.0°F0.0°C 19.6°F-6.9°C 65% 0.7 mph SW1.1 kmh SW 1.3 mph2.1 kmh 30.28 in1025.4 mb 0.00 in0.0 mm 0.00 in0.0 mm 0.00 in0.0 mm